Impacts TAF Board
For situational awareness. Not to be used for flight planning purposes.
IDs:

KGPT - Gulfport-Biloxi Intl, MS, US

Issued at 1744 UTC 07 Dec 2021
Updated at 1915 UTC 07 Dec 2021
Potential Impact None Slight Moderate High
Time1853Z 07/20Z 07/21Z 07/22Z 07/23Z 08/00Z 08/01Z 08/02Z 08/03Z 08/04Z 08/05Z 08/06Z 08/07Z 08/08Z>>
Type OBS PRVL PRVL PRVL PRVL PRVL PRVL PRVL PRVL PRVL PRVL PRVL PRVL PRVL
VIS 10 >6 >6 >6 >6 >6 >6 5 5 5 5 5 5 1
CIG 6 7 7 7 7 7 7 5 5 5 5 5 5 3
Cover OVC OVC OVC OVC OVC OVC OVC OVC OVC OVC OVC OVC OVC OVC
FltCat IFR IFR IFR IFR IFR IFR IFR IFR IFR IFR IFR IFR IFR LIFR
WX -- -- -- -- -- -- -- BR VCSH BR VCSH BR VCSH BR VCSH BR VCSH BR VCSH BR VCSH
WDir 20 40 40 40 40 40 40 VRB VRB VRB VRB VRB VRB VRB
WSpd 6 5 5 5 5 5 5 4 4 4 4 4 4 3
WGst -- -- -- -- -- -- -- -- -- -- -- -- -- --
WSHgt -- -- -- -- -- -- -- -- -- -- -- -- -- --
WSDir -- -- -- -- -- -- -- -- -- -- -- -- -- --
WSSpd -- -- -- -- -- -- -- -- -- -- -- -- -- --
Raw TAF
KGPT 071744Z 0718/0818 04005KT P6SM OVC007
  FM080200 VRB04KT 5SM BR VCSH OVC005
  FM080800 VRB03KT 1SM BR VCSH OVC003
  FM081400 33006KT 1 1/2SM BR OVC003
  FM081600 34007KT 5SM BR BKN005


Raw METAR
KGPT 071853Z 02006KT 10SM OVC006 14/12 A3004 RMK AO2 SLP170 T01440122
KGPT 071753Z 05004KT 10SM OVC006 14/13 A3006 RMK AO2 SLP178 60004 T01440128 10144 20117 58016
KGPT 071653Z 01005KT 10SM OVC007 14/12 A3011 RMK AO2 SLP194 T01390122

METAR Board
Radar Display
Forecast Discussion
For situational awareness. Not to be used for flight planning purposes.